Time;durP1;ratioP1;P1;durP2;ratioP2;P2;SDS_P1;SDS_P2;PMS_P1;PMS_P2;Temp;Humidity;BMP_temperature;BMP_pressure;BME280_temperature;BME280_humidity;BME280_pressure;Samples;Min_cycle;Max_cycle;Signal;HPM_P1;HPM_P2
2023/01/22 00:00:25;;;;;;;9.68;7.13;;;3.10;79.50;;;;;;5071182;28;20054;-80
2023/01/22 00:02:50;;;;;;;9.13;6.88;;;3.10;79.50;;;;;;5076586;28;20037;-81
2023/01/22 00:05:16;;;;;;;10.85;7.97;;;3.10;79.50;;;;;;5070366;28;20497;-84
2023/01/22 00:07:42;;;;;;;11.10;7.82;;;3.10;79.60;;;;;;5074657;28;20477;-81
2023/01/22 00:10:09;;;;;;;8.95;6.68;;;3.10;79.70;;;;;;5076847;28;20040;-81
2023/01/22 00:12:35;;;;;;;9.88;7.63;;;3.00;79.60;;;;;;5061554;28;20048;-81
2023/01/22 00:15:01;;;;;;;9.60;7.13;;;3.10;79.70;;;;;;5069383;28;20469;-80
2023/01/22 00:17:28;;;;;;;9.82;7.30;;;3.00;79.50;;;;;;5063293;28;20031;-79
2023/01/22 00:19:53;;;;;;;10.10;7.55;;;3.00;79.60;;;;;;5075194;28;20497;-82
2023/01/22 00:22:19;;;;;;;9.45;7.22;;;3.00;79.50;;;;;;5037153;28;20062;-80
2023/01/22 00:24:45;;;;;;;9.40;7.07;;;3.00;79.60;;;;;;5076692;28;20028;-81
2023/01/22 00:27:11;;;;;;;10.63;7.40;;;3.00;79.50;;;;;;5031388;28;20050;-81
2023/01/22 00:29:37;;;;;;;8.98;6.78;;;3.00;79.50;;;;;;5044449;28;20029;-89
2023/01/22 00:32:03;;;;;;;9.82;7.60;;;3.00;79.50;;;;;;5046068;28;20033;-82
2023/01/22 00:34:28;;;;;;;9.52;7.45;;;3.00;79.50;;;;;;5019008;28;20091;-80
2023/01/22 00:36:56;;;;;;;10.63;8.32;;;3.00;79.50;;;;;;5050171;28;20033;-82
2023/01/22 00:39:23;;;;;;;9.77;7.20;;;2.90;79.50;;;;;;5035098;28;20040;-81
2023/01/22 00:41:49;;;;;;;9.23;7.15;;;2.90;79.50;;;;;;5052783;28;20078;-81
2023/01/22 00:44:15;;;;;;;9.45;7.53;;;2.90;79.50;;;;;;5031386;28;20425;-80
2023/01/22 00:46:40;;;;;;;10.35;7.93;;;2.90;79.50;;;;;;5051395;28;20116;-80
2023/01/22 00:49:06;;;;;;;9.50;7.03;;;2.90;79.50;;;;;;5037502;28;20116;-81
2023/01/22 00:51:35;;;;;;;8.77;6.90;;;2.90;79.50;;;;;;5047902;28;20029;-85
2023/01/22 00:54:01;;;;;;;10.05;7.50;;;2.90;79.50;;;;;;5046447;28;20063;-80
2023/01/22 00:56:27;;;;;;;10.30;6.90;;;2.90;79.50;;;;;;5035167;28;20083;-83
2023/01/22 00:58:53;;;;;;;11.48;8.52;;;2.80;79.50;;;;;;5050412;28;20444;-80
2023/01/22 01:01:19;;;;;;;10.45;8.05;;;2.80;79.40;;;;;;5037114;28;20048;-80
2023/01/22 01:03:44;;;;;;;10.18;7.75;;;2.80;79.50;;;;;;5039543;28;20028;-80
2023/01/22 01:06:19;;;;;;;10.07;8.15;;;2.80;79.40;;;;;;5037531;28;20123;-80
2023/01/22 01:08:45;;;;;;;10.60;7.78;;;2.90;79.50;;;;;;5053636;28;20029;-80
2023/01/22 01:11:17;;;;;;;9.93;7.28;;;2.80;79.40;;;;;;5037396;28;20036;-83
2023/01/22 01:13:43;;;;;;;9.93;7.22;;;2.80;79.40;;;;;;5050066;28;20040;-87
2023/01/22 01:16:22;;;;;;;10.70;7.95;;;2.80;79.50;;;;;;5036341;28;20034;-80
2023/01/22 01:18:48;;;;;;;10.10;7.47;;;2.80;79.50;;;;;;5056770;28;20110;-79
2023/01/22 01:21:15;;;;;;;10.93;7.80;;;2.80;79.40;;;;;;5029667;28;20041;-81
2023/01/22 01:23:42;;;;;;;9.82;7.80;;;2.80;79.50;;;;;;5033225;28;20044;-84
2023/01/22 01:26:10;;;;;;;9.82;7.43;;;2.70;79.40;;;;;;5069351;28;20062;-83
2023/01/22 01:28:38;;;;;;;10.00;7.50;;;2.70;79.40;;;;;;5080875;28;20024;-85
2023/01/22 01:31:07;;;;;;;11.15;8.32;;;2.70;79.40;;;;;;5060716;28;20530;-80
2023/01/22 01:33:33;;;;;;;9.90;7.43;;;2.70;79.40;;;;;;5095066;28;20020;-80
2023/01/22 01:36:11;;;;;;;10.00;7.50;;;2.70;79.30;;;;;;5063978;28;20028;-79
2023/01/22 01:38:37;;;;;;;8.65;6.43;;;2.70;79.30;;;;;;5077130;28;20035;-81
2023/01/22 01:41:03;;;;;;;10.23;7.43;;;2.70;79.30;;;;;;5051329;28;20498;-81
2023/01/22 01:43:29;;;;;;;10.95;7.97;;;2.70;79.30;;;;;;5060604;28;20067;-79
2023/01/22 01:46:01;;;;;;;10.68;7.72;;;2.70;79.40;;;;;;5064987;28;20039;-82
2023/01/22 01:48:44;;;;;;;9.65;7.15;;;2.70;79.40;;;;;;5077988;28;20031;-80
2023/01/22 01:51:30;;;;;;;9.85;7.68;;;2.60;79.40;;;;;;5070825;28;20461;-80
2023/01/22 01:53:58;;;;;;;9.32;7.30;;;2.60;79.30;;;;;;5092938;28;20023;-80
2023/01/22 01:56:29;;;;;;;9.02;7.43;;;2.60;79.30;;;;;;5076919;28;20017;-80
2023/01/22 01:59:00;;;;;;;10.30;7.88;;;2.60;79.40;;;;;;5068630;28;20043;-79
2023/01/22 02:01:26;;;;;;;11.43;8.13;;;2.60;79.30;;;;;;5078933;28;20112;-80
2023/01/22 02:03:53;;;;;;;9.75;7.32;;;2.60;79.30;;;;;;5061248;28;20443;-80
2023/01/22 02:06:19;;;;;;;10.23;7.80;;;2.60;79.30;;;;;;5062155;28;20048;-80
2023/01/22 02:08:47;;;;;;;9.90;7.40;;;2.60;79.30;;;;;;5071403;28;20043;-82
2023/01/22 02:11:15;;;;;;;9.45;7.57;;;2.60;79.30;;;;;;5074180;28;20052;-82
2023/01/22 02:13:47;;;;;;;9.75;7.30;;;2.60;79.20;;;;;;5073303;28;20013;-80
2023/01/22 02:16:12;;;;;;;9.75;7.32;;;2.60;79.20;;;;;;5074283;28;20505;-80
2023/01/22 02:18:38;;;;;;;9.90;7.82;;;2.50;79.20;;;;;;5076790;28;20040;-79
2023/01/22 02:21:30;;;;;;;9.35;7.35;;;2.50;79.20;;;;;;5061560;28;20848;-81
2023/01/22 02:23:56;;;;;;;9.40;7.70;;;2.50;79.20;;;;;;5084800;28;20024;-80
2023/01/22 02:26:22;;;;;;;8.80;7.22;;;2.50;79.20;;;;;;5067994;28;20125;-80
2023/01/22 02:28:47;;;;;;;9.00;7.20;;;2.50;79.20;;;;;;5069285;28;20035;-85
2023/01/22 02:31:13;;;;;;;9.90;7.78;;;2.50;79.20;;;;;;5070778;28;20051;-80
2023/01/22 02:33:39;;;;;;;9.70;7.38;;;2.50;79.20;;;;;;5075797;28;20043;-80
2023/01/22 02:36:06;;;;;;;8.65;7.47;;;2.50;79.20;;;;;;5060571;28;20817;-80
2023/01/22 02:38:31;;;;;;;9.00;6.82;;;2.50;79.30;;;;;;5063648;28;20044;-86
2023/01/22 02:40:58;;;;;;;9.60;7.32;;;2.50;79.30;;;;;;5072802;28;20567;-82
2023/01/22 02:43:24;;;;;;;9.90;7.50;;;2.40;79.20;;;;;;5058379;28;20055;-80
2023/01/22 02:45:52;;;;;;;9.45;7.40;;;2.40;79.30;;;;;;5074787;28;20510;-80
2023/01/22 02:48:18;;;;;;;10.02;7.25;;;2.40;79.30;;;;;;5078074;28;20024;-81
2023/01/22 02:50:44;;;;;;;9.60;7.22;;;2.40;79.30;;;;;;5087816;28;20418;-80
2023/01/22 02:53:10;;;;;;;9.35;6.90;;;2.40;79.30;;;;;;5073943;28;20024;-80
2023/01/22 02:55:39;;;;;;;9.43;6.88;;;2.50;79.30;;;;;;5073610;28;20517;-79
2023/01/22 02:58:05;;;;;;;8.73;6.53;;;2.50;79.30;;;;;;5085810;28;20082;-82
2023/01/22 03:00:31;;;;;;;8.60;6.38;;;2.40;79.20;;;;;;5071464;28;20032;-78
2023/01/22 03:02:57;;;;;;;9.35;7.20;;;2.50;79.20;;;;;;5055062;28;20032;-80
2023/01/22 03:05:24;;;;;;;8.40;6.50;;;2.50;79.20;;;;;;5073352;28;20052;-81
2023/01/22 03:07:50;;;;;;;8.90;6.95;;;2.50;79.20;;;;;;5060808;28;20122;-80
2023/01/22 03:10:18;;;;;;;9.35;6.68;;;2.40;79.10;;;;;;5074442;28;20100;-80
2023/01/22 03:21:17;;;;;;;8.60;6.80;;;2.40;79.10;;;;;;5089909;28;20067;-80
2023/01/22 03:23:48;;;;;;;8.50;6.60;;;2.40;79.10;;;;;;5065956;28;20274;-81
2023/01/22 03:26:17;;;;;;;8.57;6.47;;;2.50;79.10;;;;;;5060367;28;20067;-80
2023/01/22 03:28:44;;;;;;;8.45;6.40;;;2.40;79.10;;;;;;5043873;28;20039;-80
2023/01/22 03:31:11;;;;;;;8.82;6.35;;;2.50;79.10;;;;;;5073650;28;20126;-80
2023/01/22 03:33:37;;;;;;;8.85;6.50;;;2.50;79.10;;;;;;5077840;28;20024;-81
2023/01/22 03:36:08;;;;;;;8.95;7.03;;;2.50;79.10;;;;;;5066219;28;20074;-85
2023/01/22 03:38:35;;;;;;;8.98;6.60;;;2.50;79.10;;;;;;5064081;28;20028;-81
2023/01/22 03:41:04;;;;;;;7.35;5.72;;;2.50;79.10;;;;;;5078812;28;20086;-83
2023/01/22 03:43:30;;;;;;;8.50;5.90;;;2.50;79.10;;;;;;5072519;28;20024;-80
2023/01/22 03:46:04;;;;;;;8.43;6.40;;;2.50;79.10;;;;;;5071177;28;20404;-83
2023/01/22 03:48:31;;;;;;;;;;;2.50;79.20;;;;;;5070712;28;20127;-80
2023/01/22 03:51:09;;;;;;;7.30;5.10;;;2.40;79.10;;;;;;5073366;28;20007;-80
2023/01/22 03:53:35;;;;;;;7.20;5.95;;;2.50;79.10;;;;;;5069378;28;20401;-83
2023/01/22 03:56:05;;;;;;;8.32;6.35;;;2.40;79.70;;;;;;5067064;28;20024;-81
2023/01/22 03:58:33;;;;;;;9.50;6.72;;;2.40;79.20;;;;;;5068375;28;20070;-81
2023/01/22 04:01:01;;;;;;;9.40;6.97;;;2.40;79.30;;;;;;5087370;28;20025;-86
2023/01/22 04:03:28;;;;;;;8.32;6.35;;;2.50;79.30;;;;;;5069558;28;20464;-81
2023/01/22 04:05:58;;;;;;;7.93;6.35;;;2.50;79.30;;;;;;5071608;28;20035;-81
2023/01/22 04:08:28;;;;;;;8.07;6.13;;;2.50;79.30;;;;;;5058233;28;20432;-81
2023/01/22 04:10:58;;;;;;;7.88;5.93;;;2.50;79.30;;;;;;5078282;28;20039;-82
2023/01/22 04:13:25;;;;;;;7.32;6.22;;;2.50;79.30;;;;;;5075561;28;20031;-86
2023/01/22 04:15:51;;;;;;;8.07;6.03;;;2.50;79.30;;;;;;5073848;28;20054;-80
2023/01/22 04:18:36;;;;;;;8.55;6.55;;;2.50;79.20;;;;;;5064394;28;20090;-81
2023/01/22 04:21:22;;;;;;;7.88;5.88;;;2.50;79.20;;;;;;5069601;28;20023;-80
2023/01/22 04:23:55;;;;;;;8.30;6.50;;;2.60;79.30;;;;;;5071041;28;20024;-85
2023/01/22 04:26:21;;;;;;;9.45;6.45;;;2.60;79.40;;;;;;5040121;28;20506;-80
2023/01/22 04:28:47;;;;;;;8.30;6.47;;;2.60;79.40;;;;;;5049967;28;20071;-84
2023/01/22 04:31:13;;;;;;;8.05;5.78;;;2.60;80.00;;;;;;5029002;28;20033;-80
2023/01/22 04:33:58;;;;;;;7.97;6.10;;;2.60;79.30;;;;;;5032136;28;20105;-80
2023/01/22 04:36:26;;;;;;;8.40;6.43;;;2.60;79.30;;;;;;5030690;28;20541;-82
2023/01/22 04:38:52;;;;;;;7.85;6.30;;;2.60;79.30;;;;;;5044817;28;20128;-81
2023/01/22 04:41:18;;;;;;;8.30;6.63;;;2.60;79.30;;;;;;5035357;28;20037;-84
2023/01/22 04:43:44;;;;;;;8.63;6.65;;;2.60;79.30;;;;;;5016641;28;20115;-81
2023/01/22 04:46:09;;;;;;;10.27;7.03;;;2.60;79.40;;;;;;5039903;28;20079;-82
2023/01/22 04:48:35;;;;;;;9.02;6.53;;;2.60;79.40;;;;;;5016368;28;20029;-82
2023/01/22 04:51:01;;;;;;;8.38;6.47;;;2.70;79.50;;;;;;5021713;28;20059;-86
2023/01/22 04:53:29;;;;;;;8.27;6.28;;;2.70;79.50;;;;;;5047303;28;20037;-81
2023/01/22 04:55:55;;;;;;;8.75;6.82;;;2.70;79.50;;;;;;5048500;28;20072;-89
2023/01/22 04:58:21;;;;;;;8.07;6.38;;;2.70;79.50;;;;;;5049770;28;20044;-80
2023/01/22 05:00:46;;;;;;;8.88;6.28;;;2.70;79.40;;;;;;5033658;28;20171;-84
2023/01/22 05:03:12;;;;;;;9.18;6.60;;;2.70;79.40;;;;;;5028750;28;20049;-80
2023/01/22 05:05:40;;;;;;;9.23;6.78;;;2.70;79.40;;;;;;5032301;28;20049;-81
2023/01/22 05:08:06;;;;;;;7.97;6.07;;;2.70;79.40;;;;;;5030891;28;20058;-81
2023/01/22 05:10:34;;;;;;;8.85;6.88;;;2.80;79.50;;;;;;5030203;28;20041;-80
2023/01/22 05:13:04;;;;;;;9.63;7.15;;;2.80;79.50;;;;;;5032085;28;20031;-80
2023/01/22 05:15:30;;;;;;;9.25;7.00;;;2.70;79.40;;;;;;5047412;28;20040;-83
2023/01/22 05:18:01;;;;;;;7.78;6.50;;;2.80;79.50;;;;;;5017206;28;20029;-81
2023/01/22 05:20:27;;;;;;;8.27;6.28;;;2.80;79.50;;;;;;5049795;28;20515;-81
2023/01/22 05:22:53;;;;;;;8.95;6.85;;;2.80;79.50;;;;;;5054280;28;20492;-80
2023/01/22 05:25:23;;;;;;;9.45;6.78;;;2.80;79.50;;;;;;5041988;28;20048;-81
2023/01/22 05:27:49;;;;;;;8.70;6.50;;;2.80;79.50;;;;;;5091371;28;20480;-82
2023/01/22 05:30:26;;;;;;;8.77;6.53;;;2.80;79.50;;;;;;5064620;28;20034;-81
2023/01/22 05:32:59;;;;;;;9.23;6.97;;;2.80;79.50;;;;;;5065666;28;20036;-81
2023/01/22 05:35:26;;;;;;;8.63;6.70;;;2.90;79.50;;;;;;5057138;28;20048;-80
2023/01/22 05:37:52;;;;;;;8.68;6.22;;;2.80;79.50;;;;;;5061072;28;20047;-81
2023/01/22 05:40:19;;;;;;;8.20;6.82;;;2.90;79.60;;;;;;5070374;28;20036;-80
2023/01/22 05:42:45;;;;;;;8.85;7.10;;;2.90;79.60;;;;;;5076918;28;20024;-81
2023/01/22 05:45:12;;;;;;;9.80;7.05;;;2.80;79.50;;;;;;5056432;28;20428;-88
2023/01/22 05:47:53;;;;;;;8.30;6.20;;;2.80;79.50;;;;;;5094433;28;20041;-81
2023/01/22 05:50:38;;;;;;;8.80;6.63;;;2.90;79.60;;;;;;5083382;28;20157;-84
2023/01/22 05:53:08;;;;;;;7.95;6.72;;;2.90;79.60;;;;;;5091554;28;20119;-84
2023/01/22 05:55:34;;;;;;;8.93;6.90;;;2.90;79.60;;;;;;5064090;28;20107;-89
2023/01/22 05:58:01;;;;;;;9.23;7.30;;;2.90;79.70;;;;;;5058688;28;20036;-87
2023/01/22 06:00:27;;;;;;;8.57;6.78;;;2.90;79.70;;;;;;5087236;28;20036;-82
2023/01/22 06:02:58;;;;;;;9.18;6.53;;;2.90;79.60;;;;;;5077216;28;20089;-80
2023/01/22 06:05:25;;;;;;;7.55;6.30;;;2.90;79.60;;;;;;5071060;28;20472;-81
2023/01/22 06:07:59;;;;;;;8.52;6.50;;;2.90;79.60;;;;;;5074855;28;20464;-80
2023/01/22 06:10:28;;;;;;;9.02;6.93;;;2.90;79.50;;;;;;5072097;28;20050;-81
2023/01/22 06:12:54;;;;;;;10.00;7.88;;;2.90;79.50;;;;;;5058135;28;20532;-82
2023/01/22 06:15:20;;;;;;;8.65;6.75;;;3.00;79.70;;;;;;5057823;28;20811;-82
2023/01/22 06:17:53;;;;;;;8.95;7.45;;;3.00;79.60;;;;;;5062225;28;20085;-84
2023/01/22 06:20:18;;;;;;;9.13;6.78;;;3.00;79.60;;;;;;5061448;28;20063;-80
2023/01/22 06:22:44;;;;;;;8.25;6.32;;;3.00;79.60;;;;;;5054865;28;20035;-89
2023/01/22 06:25:10;;;;;;;8.43;6.65;;;3.00;79.60;;;;;;5067936;28;20037;-82
2023/01/22 06:27:55;;;;;;;8.88;6.95;;;3.00;79.60;;;;;;5048223;28;20045;-80
2023/01/22 06:30:21;;;;;;;8.98;6.95;;;3.00;79.60;;;;;;5049391;28;20522;-84
2023/01/22 06:32:51;;;;;;;7.35;5.90;;;3.00;79.60;;;;;;5034144;28;20030;-81
2023/01/22 06:35:17;;;;;;;8.43;6.57;;;3.00;79.70;;;;;;5049211;28;20025;-84
2023/01/22 06:37:43;;;;;;;9.63;6.85;;;3.10;79.70;;;;;;5031439;28;20103;-81
2023/01/22 06:40:10;;;;;;;8.43;6.65;;;3.00;79.70;;;;;;5033203;28;20128;-81
2023/01/22 06:42:41;;;;;;;7.57;6.13;;;3.00;79.60;;;;;;5049947;28;20461;-84
2023/01/22 06:45:07;;;;;;;8.40;6.22;;;3.10;79.70;;;;;;5053475;28;20052;-81
2023/01/22 06:47:35;;;;;;;7.97;6.25;;;3.00;79.70;;;;;;5035213;28;20405;-81
2023/01/22 06:50:02;;;;;;;7.63;6.13;;;3.10;80.40;;;;;;5046358;28;20036;-81
2023/01/22 06:52:28;;;;;;;7.90;6.47;;;3.00;79.70;;;;;;5024604;28;20028;-81
2023/01/22 06:54:53;;;;;;;8.40;7.00;;;3.00;79.70;;;;;;5035151;28;20389;-80
2023/01/22 06:57:19;;;;;;;7.55;5.82;;;3.10;79.70;;;;;;5048702;28;20045;-81
2023/01/22 06:59:45;;;;;;;7.15;5.90;;;3.10;79.70;;;;;;5034692;28;20029;-81
2023/01/22 07:02:16;;;;;;;8.10;5.90;;;3.10;79.70;;;;;;5031557;28;20067;-82
2023/01/22 07:04:42;;;;;;;8.30;6.50;;;3.10;79.80;;;;;;5044482;28;20060;-81
2023/01/22 07:07:07;;;;;;;8.63;6.68;;;3.10;79.80;;;;;;5048009;28;20071;-81
2023/01/22 07:09:33;;;;;;;7.63;6.40;;;3.10;79.80;;;;;;5036123;28;20025;-81
2023/01/22 07:12:00;;;;;;;7.65;6.30;;;3.10;79.80;;;;;;5039647;28;20044;-79
2023/01/22 07:14:27;;;;;;;7.55;6.28;;;3.10;79.80;;;;;;5067204;28;20025;-79
2023/01/22 07:16:52;;;;;;;7.07;5.90;;;3.10;79.80;;;;;;5034139;28;20081;-81
2023/01/22 07:19:18;;;;;;;7.22;5.85;;;3.10;79.80;;;;;;5048871;28;20167;-84
2023/01/22 07:21:44;;;;;;;7.07;5.75;;;3.10;79.80;;;;;;5018429;28;20062;-86
2023/01/22 07:24:10;;;;;;;8.13;6.03;;;3.10;79.80;;;;;;5051978;28;20033;-81
2023/01/22 07:26:37;;;;;;;7.88;6.05;;;3.10;79.80;;;;;;5034546;28;20053;-80
2023/01/22 07:29:04;;;;;;;7.05;5.80;;;3.10;79.80;;;;;;5039029;28;20095;-81
2023/01/22 07:31:30;;;;;;;7.55;5.88;;;3.10;79.80;;;;;;5049700;28;20033;-81
2023/01/22 07:33:55;;;;;;;7.03;5.63;;;3.10;79.80;;;;;;5049081;28;20056;-79
2023/01/22 07:36:22;;;;;;;7.38;5.75;;;3.10;79.80;;;;;;5029877;28;20025;-78
2023/01/22 07:38:48;;;;;;;6.68;5.35;;;3.10;79.70;;;;;;5063555;28;20064;-85
2023/01/22 07:41:14;;;;;;;7.45;6.38;;;3.10;79.70;;;;;;5051446;28;20053;-80
2023/01/22 07:43:40;;;;;;;7.65;5.72;;;3.10;79.80;;;;;;5066567;28;20037;-83
2023/01/22 07:46:06;;;;;;;7.18;5.55;;;3.10;79.80;;;;;;5049707;28;20036;-85
2023/01/22 07:48:32;;;;;;;6.72;5.57;;;3.10;79.80;;;;;;5028279;28;20037;-82
2023/01/22 07:51:05;;;;;;;6.32;4.85;;;3.10;79.80;;;;;;5049445;28;20029;-80
2023/01/22 07:53:31;;;;;;;6.68;5.53;;;3.10;79.80;;;;;;5053601;28;20108;-82
2023/01/22 07:55:57;;;;;;;7.63;5.70;;;3.10;79.80;;;;;;5056375;28;20033;-80
2023/01/22 07:58:23;;;;;;;8.00;5.30;;;3.10;79.80;;;;;;5054500;28;20443;-80
2023/01/22 08:00:49;;;;;;;6.07;4.95;;;3.10;79.80;;;;;;5065304;28;20025;-86
2023/01/22 08:03:15;;;;;;;6.05;4.88;;;3.10;79.70;;;;;;5050398;28;20449;-79
2023/01/22 08:05:42;;;;;;;6.85;5.63;;;3.10;79.80;;;;;;5049232;28;20021;-80
2023/01/22 08:08:16;;;;;;;6.22;5.35;;;3.10;79.80;;;;;;5049826;28;20055;-81
2023/01/22 08:10:42;;;;;;;6.15;5.20;;;3.20;79.90;;;;;;5055070;28;20025;-79
2023/01/22 08:13:09;;;;;;;8.45;5.95;;;3.10;79.80;;;;;;5055204;28;20469;-84
2023/01/22 08:15:35;;;;;;;7.32;5.45;;;3.10;79.80;;;;;;5051905;28;20063;-79
2023/01/22 08:18:01;;;;;;;6.10;4.97;;;3.10;79.80;;;;;;5048540;28;20489;-81
2023/01/22 08:20:27;;;;;;;6.88;5.15;;;3.10;79.80;;;;;;5049252;28;20116;-82
2023/01/22 08:22:57;;;;;;;6.22;4.70;;;3.10;79.80;;;;;;5045546;28;20112;-82
2023/01/22 08:25:23;;;;;;;6.95;5.20;;;3.10;79.80;;;;;;5063467;28;20037;-83
2023/01/22 08:27:49;;;;;;;6.53;5.35;;;3.10;79.80;;;;;;5053785;28;20142;-80
2023/01/22 08:30:15;;;;;;;6.53;4.75;;;3.10;79.80;;;;;;5072923;28;20119;-81
2023/01/22 08:32:41;;;;;;;6.63;5.25;;;3.10;79.80;;;;;;5043354;28;20468;-82
2023/01/22 08:35:08;;;;;;;5.70;4.65;;;3.10;79.70;;;;;;5065128;28;20031;-82
2023/01/22 08:37:33;;;;;;;6.72;5.15;;;3.10;79.80;;;;;;5090450;28;20038;-81
2023/01/22 08:39:59;;;;;;;6.82;5.15;;;3.20;79.80;;;;;;5074791;28;20160;-85
2023/01/22 08:42:25;;;;;;;6.93;5.05;;;3.20;79.80;;;;;;5073131;28;20043;-81
2023/01/22 08:44:50;;;;;;;5.97;4.80;;;3.10;79.80;;;;;;5043840;28;20035;-83
2023/01/22 08:47:16;;;;;;;6.90;5.20;;;3.20;79.80;;;;;;5065437;28;20428;-81
2023/01/22 08:49:42;;;;;;;5.97;5.03;;;3.10;79.80;;;;;;5063615;28;20028;-82
2023/01/22 08:52:08;;;;;;;6.00;5.00;;;3.10;79.80;;;;;;5056310;28;20040;-82
2023/01/22 08:54:33;;;;;;;5.63;4.47;;;3.10;79.80;;;;;;5087638;28;20122;-85
2023/01/22 08:56:59;;;;;;;6.28;5.35;;;3.20;79.80;;;;;;5063354;28;20028;-82
2023/01/22 08:59:25;;;;;;;6.70;5.78;;;3.20;79.80;;;;;;5086204;28;20021;-84
2023/01/22 09:01:50;;;;;;;6.00;5.07;;;3.20;79.80;;;;;;5088801;28;20442;-83
2023/01/22 09:04:18;;;;;;;5.85;5.03;;;3.20;79.90;;;;;;5033780;28;20024;-83
2023/01/22 09:06:44;;;;;;;6.45;5.47;;;3.20;79.90;;;;;;5063349;28;20032;-84
2023/01/22 09:09:11;;;;;;;6.28;4.97;;;3.30;79.90;;;;;;5096761;28;20418;-83
2023/01/22 09:11:37;;;;;;;5.80;4.78;;;3.20;79.80;;;;;;5086122;28;20024;-86
2023/01/22 09:14:06;;;;;;;5.93;5.00;;;3.20;79.90;;;;;;5070645;28;20059;-85
2023/01/22 09:16:32;;;;;;;5.97;5.15;;;3.20;79.80;;;;;;5063423;28;20072;-84
2023/01/22 09:18:58;;;;;;;6.15;5.05;;;3.20;79.80;;;;;;5082158;28;20036;-89
2023/01/22 09:21:24;;;;;;;6.00;5.07;;;3.20;79.80;;;;;;5060803;28;20032;-85
2023/01/22 09:23:49;;;;;;;6.80;5.70;;;3.30;79.90;;;;;;5044660;28;20047;-88
2023/01/22 09:26:15;;;;;;;5.60;4.80;;;3.20;79.90;;;;;;5075411;28;20059;-84
2023/01/22 09:28:41;;;;;;;6.30;5.07;;;3.30;79.90;;;;;;5063145;28;20020;-85
2023/01/22 09:31:11;;;;;;;5.90;4.75;;;3.30;79.90;;;;;;5063475;28;20035;-84
2023/01/22 09:33:36;;;;;;;6.10;5.10;;;3.30;79.90;;;;;;5091488;28;20020;-85
2023/01/22 09:36:14;;;;;;;6.50;5.60;;;3.30;79.90;;;;;;5066146;28;20523;-84
2023/01/22 09:38:40;;;;;;;5.95;4.75;;;3.30;80.00;;;;;;5083303;28;20044;-84
2023/01/22 09:41:29;;;;;;;6.32;5.65;;;3.30;79.90;;;;;;5095174;28;20020;-84
2023/01/22 09:43:59;;;;;;;5.63;4.75;;;3.30;79.90;;;;;;5068327;28;20451;-85
2023/01/22 09:46:32;;;;;;;5.47;4.57;;;3.30;79.80;;;;;;5076786;28;20020;-84
2023/01/22 09:49:12;;;;;;;5.95;4.90;;;3.40;79.90;;;;;;5077297;28;20114;-85
2023/01/22 09:51:37;;;;;;;5.88;4.72;;;3.40;79.90;;;;;;5061262;28;20511;-85
2023/01/22 09:54:07;;;;;;;6.25;5.38;;;3.40;79.90;;;;;;5065637;28;20021;-85
2023/01/22 09:56:45;;;;;;;5.50;4.20;;;3.40;79.90;;;;;;5061350;28;20389;-85
2023/01/22 09:59:17;;;;;;;6.35;4.90;;;3.40;80.00;;;;;;5078617;28;20040;-86
2023/01/22 10:01:54;;;;;;;5.88;4.93;;;3.40;79.90;;;;;;5092809;28;20024;-84
2023/01/22 10:04:39;;;;;;;5.47;4.65;;;3.40;79.90;;;;;;5069038;28;20059;-84
2023/01/22 10:07:28;;;;;;;5.28;4.35;;;3.40;80.50;;;;;;5076556;28;20020;-85
2023/01/22 10:10:00;;;;;;;5.28;4.38;;;3.40;79.90;;;;;;5080393;28;20032;-83
2023/01/22 10:12:30;;;;;;;6.00;5.10;;;3.40;79.80;;;;;;5061505;28;20020;-83
2023/01/22 10:14:56;;;;;;;5.45;4.70;;;3.50;79.90;;;;;;5102567;28;20028;-83
2023/01/22 10:17:29;;;;;;;6.30;4.90;;;3.40;79.80;;;;;;5075233;28;20053;-83
2023/01/22 10:20:01;;;;;;;5.57;4.82;;;3.50;79.90;;;;;;5085762;28;20069;-83
2023/01/22 10:22:27;;;;;;;6.32;5.15;;;3.50;80.00;;;;;;5076777;28;20491;-84
2023/01/22 10:24:54;;;;;;;5.78;4.85;;;3.50;79.90;;;;;;5075945;28;20032;-83
2023/01/22 10:27:35;;;;;;;5.60;4.65;;;3.50;79.90;;;;;;5063984;28;20052;-81
2023/01/22 10:30:24;;;;;;;6.05;5.18;;;3.50;79.90;;;;;;5095987;28;20477;-83
2023/01/22 10:32:59;;;;;;;5.93;4.57;;;3.50;79.90;;;;;;5089034;28;20063;-84
2023/01/22 10:35:24;;;;;;;;;;;3.50;79.90;;;;;;5098575;28;20035;-84
2023/01/22 10:37:53;;;;;;;5.50;4.25;;;3.50;79.80;;;;;;5094047;28;19916;-83
2023/01/22 10:40:31;;;;;;;6.25;4.70;;;3.50;79.80;;;;;;5077399;28;20101;-84
2023/01/22 10:43:11;;;;;;;6.53;4.43;;;3.50;79.90;;;;;;5076061;28;20451;-82
2023/01/22 10:45:38;;;;;;;5.43;4.55;;;3.50;79.90;;;;;;5085182;28;20028;-84
2023/01/22 10:48:15;;;;;;;5.35;4.60;;;3.60;79.90;;;;;;5078265;28;20081;-84
2023/01/22 10:50:42;;;;;;;6.97;5.10;;;3.50;79.90;;;;;;5093287;28;20020;-83
2023/01/22 10:53:22;;;;;;;5.80;4.65;;;3.50;79.90;;;;;;5059536;28;20427;-83
2023/01/22 10:55:54;;;;;;;5.97;4.85;;;3.60;80.00;;;;;;5075272;28;20030;-84
2023/01/22 10:58:21;;;;;;;6.50;5.00;;;3.60;80.00;;;;;;5076824;28;20038;-91
2023/01/22 11:01:02;;;;;;;5.45;4.35;;;3.60;80.00;;;;;;5080516;28;20028;-82
2023/01/22 11:03:37;;;;;;;6.43;5.30;;;3.60;80.00;;;;;;5085316;28;20107;-82
2023/01/22 11:06:14;;;;;;;5.68;4.85;;;3.60;80.00;;;;;;5076440;28;20076;-83
2023/01/22 11:08:56;;;;;;;6.70;5.68;;;3.60;80.00;;;;;;5085138;28;20039;-83
2023/01/22 11:11:34;;;;;;;6.22;4.70;;;3.60;80.00;;;;;;5077353;28;20017;-82
2023/01/22 11:14:25;;;;;;;5.35;4.72;;;3.60;80.00;;;;;;5092626;28;20107;-84
2023/01/22 11:16:55;;;;;;;6.50;5.10;;;3.70;80.00;;;;;;5096116;28;20036;-85
2023/01/22 11:19:26;;;;;;;5.80;4.55;;;3.70;80.00;;;;;;5076950;28;20028;-86
2023/01/22 11:21:56;;;;;;;6.15;5.15;;;3.70;80.00;;;;;;5087755;28;20365;-83
2023/01/22 11:24:40;;;;;;;6.55;5.07;;;3.70;80.00;;;;;;5082202;28;20085;-88
2023/01/22 11:27:50;;;;;;;6.17;4.80;;;3.70;80.10;;;;;;5101919;28;20051;-83
2023/01/22 11:30:22;;;;;;;5.50;4.80;;;3.70;80.10;;;;;;5092253;28;20286;-83
2023/01/22 11:33:02;;;;;;;6.47;5.03;;;3.70;80.00;;;;;;5091599;28;20053;-83
2023/01/22 11:35:51;;;;;;;5.88;4.88;;;3.70;80.00;;;;;;5076169;28;20415;-83
2023/01/22 11:38:52;;;;;;;6.43;5.22;;;3.70;80.10;;;;;;5078305;28;20456;-83
2023/01/22 11:41:36;;;;;;;6.53;5.10;;;3.70;80.10;;;;;;5085466;28;20086;-83
2023/01/22 11:44:05;;;;;;;6.10;5.25;;;3.70;80.10;;;;;;5083494;28;20555;-83
2023/01/22 11:46:47;;;;;;;6.68;5.18;;;3.70;80.10;;;;;;5091283;28;20154;-84
2023/01/22 11:49:28;;;;;;;6.05;4.75;;;3.70;80.10;;;;;;5079323;28;20039;-83
2023/01/22 11:52:22;;;;;;;6.78;4.88;;;3.70;80.10;;;;;;5046391;28;20054;-83
2023/01/22 11:55:19;;;;;;;6.30;4.85;;;3.70;80.10;;;;;;5079964;28;20095;-82
2023/01/22 11:58:04;;;;;;;5.90;4.78;;;3.80;80.20;;;;;;5093093;28;20081;-84
2023/01/22 12:00:40;;;;;;;6.35;5.28;;;3.80;80.20;;;;;;5076830;28;20020;-83
2023/01/22 12:03:30;;;;;;;6.20;4.75;;;3.80;80.10;;;;;;5074985;28;20026;-84
2023/01/22 12:06:16;;;;;;;5.60;4.60;;;3.80;80.20;;;;;;5067953;28;20024;-82
2023/01/22 12:09:02;;;;;;;7.35;5.78;;;3.80;80.10;;;;;;5074529;28;20261;-84
2023/01/22 12:11:46;;;;;;;6.75;5.22;;;3.80;80.10;;;;;;5089548;28;20110;-83
2023/01/22 12:14:38;;;;;;;6.50;4.97;;;3.80;80.10;;;;;;5077467;28;20081;-83
2023/01/22 12:17:40;;;;;;;6.78;5.18;;;3.90;80.20;;;;;;5071040;28;20024;-84
2023/01/22 12:20:22;;;;;;;6.55;5.15;;;3.80;80.20;;;;;;5073646;28;20027;-84
2023/01/22 12:23:01;;;;;;;5.53;4.47;;;3.90;80.20;;;;;;5060297;28;20119;-83
2023/01/22 12:25:49;;;;;;;6.25;5.25;;;3.80;80.10;;;;;;5078740;28;20048;-84
2023/01/22 12:28:25;;;;;;;7.30;5.63;;;3.90;80.20;;;;;;5095611;28;20047;-82
2023/01/22 12:31:15;;;;;;;6.88;5.35;;;3.90;80.20;;;;;;5080528;28;20051;-82
2023/01/22 12:33:43;;;;;;;6.80;5.47;;;3.90;80.20;;;;;;5095184;28;20028;-83
2023/01/22 12:36:15;;;;;;;6.60;5.20;;;3.90;80.10;;;;;;5067431;28;20028;-84
2023/01/22 12:38:42;;;;;;;6.68;5.45;;;3.90;80.20;;;;;;5060841;28;20123;-83
2023/01/22 12:41:29;;;;;;;6.10;4.82;;;3.90;80.20;;;;;;5071047;28;20035;-82
2023/01/22 12:44:02;;;;;;;7.57;5.70;;;3.90;80.30;;;;;;5096042;28;20032;-85
2023/01/22 12:46:49;;;;;;;6.75;5.28;;;3.90;80.20;;;;;;5071190;28;20381;-84
2023/01/22 12:49:15;;;;;;;7.13;5.57;;;4.00;80.20;;;;;;5094237;28;20032;-85
2023/01/22 12:51:50;;;;;;;7.60;5.82;;;4.00;80.20;;;;;;5064949;28;20416;-88
2023/01/22 12:54:25;;;;;;;7.15;5.75;;;4.00;80.20;;;;;;5075148;28;20461;-84
2023/01/22 12:57:19;;;;;;;8.25;5.93;;;4.00;80.20;;;;;;5094787;28;20028;-84
2023/01/22 12:59:53;;;;;;;8.20;6.10;;;4.00;80.20;;;;;;5070537;28;20105;-85
2023/01/22 13:02:29;;;;;;;7.18;5.72;;;4.00;80.30;;;;;;5075398;28;20020;-79
2023/01/22 13:04:56;;;;;;;8.43;5.68;;;4.00;80.20;;;;;;5075029;28;20035;-85
2023/01/22 13:07:27;;;;;;;6.40;5.43;;;4.10;80.20;;;;;;5065055;28;20032;-82
2023/01/22 13:10:06;;;;;;;7.93;5.70;;;4.10;80.30;;;;;;5104648;28;20052;-82
2023/01/22 13:12:48;;;;;;;6.78;5.45;;;4.10;80.30;;;;;;5081937;28;20051;-84
2023/01/22 13:15:20;;;;;;;6.45;5.30;;;4.10;80.30;;;;;;5081648;28;20048;-82
2023/01/22 13:17:55;;;;;;;6.05;5.30;;;4.10;80.20;;;;;;5079323;28;20473;-83
2023/01/22 13:20:21;;;;;;;7.03;5.43;;;4.10;80.30;;;;;;5068223;28;20040;-83
2023/01/22 13:22:47;;;;;;;7.10;5.88;;;4.10;80.20;;;;;;5062774;28;20060;-83